Time;durP1;ratioP1;P1;durP2;ratioP2;P2;SDS_P1;SDS_P2;PMS_P1;PMS_P2;Temp;Humidity;BMP_temperature;BMP_pressure;BME280_temperature;BME280_humidity;BME280_pressure;Samples;Min_cycle;Max_cycle;Signal;HPM_P1;HPM_P2
2024/01/16 00:01:44;;;;;;;1.00;1.00;;;;;;;-3.10;100.00;96839.69;5043732;28;20059;-78
2024/01/16 00:04:11;;;;;;;0.90;0.90;;;;;;;-3.12;100.00;96846.19;5093578;28;20479;-79
2024/01/16 00:06:46;;;;;;;0.93;0.93;;;;;;;-3.12;100.00;96844.34;5034986;28;20041;-78
2024/01/16 00:09:28;;;;;;;1.00;1.00;;;;;;;-3.11;100.00;96847.81;5013998;28;20203;-79
2024/01/16 00:12:24;;;;;;;1.00;1.00;;;;;;;-3.07;100.00;96856.94;4983303;28;20414;-79
2024/01/16 00:15:05;;;;;;;1.00;1.00;;;;;;;-3.09;100.00;96843.97;5021305;28;20049;-79
2024/01/16 00:17:48;;;;;;;1.00;1.00;;;;;;;-3.09;100.00;96838.69;4991665;28;20154;-79
2024/01/16 00:20:16;;;;;;;1.10;1.10;;;;;;;-3.11;100.00;96822.25;4975664;28;20054;-78
2024/01/16 00:22:43;;;;;;;1.40;1.30;;;;;;;-3.14;100.00;96829.75;5006325;28;20521;-78
2024/01/16 00:25:14;;;;;;;1.30;1.20;;;;;;;-3.11;100.00;96848.63;4994751;28;20053;-78
2024/01/16 00:27:57;;;;;;;1.05;1.05;;;;;;;-3.08;100.00;96842.13;4991483;28;20476;-78
2024/01/16 00:30:42;;;;;;;1.00;1.00;;;;;;;-3.12;100.00;96848.81;4952288;29;20066;-78
2024/01/16 00:33:40;;;;;;;1.10;1.10;;;;;;;-3.15;100.00;96836.88;4936411;29;20106;-79
2024/01/16 00:36:10;;;;;;;1.10;1.10;;;;;;;-3.13;100.00;96841.94;4937497;29;20058;-79
2024/01/16 00:38:44;;;;;;;;;;;;;;;-3.13;100.00;96842.75;4936997;29;20099;-78
2024/01/16 00:41:23;;;;;;;1.15;1.15;;;;;;;-3.17;100.00;96838.09;4901726;29;19933;-78
2024/01/16 00:43:50;;;;;;;1.10;1.10;;;;;;;-3.17;100.00;96838.91;4917190;29;20138;-78
2024/01/16 00:46:18;;;;;;;1.00;1.00;;;;;;;-3.16;100.00;96831.81;4933508;29;20082;-77
2024/01/16 00:48:45;;;;;;;1.00;1.00;;;;;;;-3.16;100.00;96837.91;4933524;29;20047;-78
2024/01/16 00:51:18;;;;;;;1.13;1.13;;;;;;;-3.10;100.00;96844.97;4917206;29;20051;-78
2024/01/16 00:54:15;;;;;;;1.00;1.00;;;;;;;-3.10;100.00;96844.97;4933036;29;20476;-77
2024/01/16 00:56:59;;;;;;;1.00;1.00;;;;;;;-3.13;100.00;96845.38;4901414;29;20169;-78
2024/01/16 00:59:27;;;;;;;0.90;0.90;;;;;;;-3.14;100.00;96841.13;4917646;29;20440;-78
2024/01/16 01:02:04;;;;;;;0.93;0.93;;;;;;;-3.15;100.00;96842.13;4913206;29;20051;-79
2024/01/16 01:04:36;;;;;;;;;;;;;;;-3.18;100.00;96836.50;4889861;29;20054;-79
2024/01/16 01:07:03;;;;;;;1.05;1.05;;;;;;;-3.21;100.00;96836.91;4940535;28;19927;-79
2024/01/16 01:09:33;;;;;;;1.30;1.20;;;;;;;-3.24;100.00;96832.88;4980008;28;20530;-78
2024/01/16 01:12:00;;;;;;;1.08;1.08;;;;;;;-3.25;100.00;96830.44;5026437;28;20053;-79
2024/01/16 01:14:29;;;;;;;1.08;1.08;;;;;;;-3.26;100.00;96824.34;5033710;28;20148;-79
2024/01/16 01:16:58;;;;;;;0.95;0.95;;;;;;;-3.26;100.00;96832.25;5033924;28;20049;-79
2024/01/16 01:19:43;;;;;;;1.40;1.30;;;;;;;-3.30;100.00;96829.22;5024211;28;20053;-78
2024/01/16 01:22:13;;;;;;;0.90;0.90;;;;;;;-3.24;100.00;96824.94;5053450;28;20048;-79
2024/01/16 01:24:54;;;;;;;1.00;1.00;;;;;;;-3.20;100.00;96830.59;5034059;28;20057;-79
2024/01/16 01:27:22;;;;;;;1.30;1.20;;;;;;;-3.24;100.00;96821.47;5018061;28;20053;-79
2024/01/16 01:29:49;;;;;;;0.98;0.98;;;;;;;-3.23;100.00;96829.19;5033572;28;20065;-79
2024/01/16 01:32:21;;;;;;;1.00;1.00;;;;;;;-3.22;100.00;96825.53;5013621;28;20104;-78
2024/01/16 01:34:51;;;;;;;0.90;0.90;;;;;;;-3.22;100.00;96820.25;5013464;28;20512;-79
2024/01/16 01:37:51;;;;;;;1.10;1.10;;;;;;;-3.29;100.00;96816.84;4973167;28;20169;-78
2024/01/16 01:40:26;;;;;;;1.00;1.00;;;;;;;-3.31;100.00;96824.16;4978342;28;20054;-78
2024/01/16 01:43:25;;;;;;;0.95;0.95;;;;;;;-3.30;100.00;96823.94;4996447;28;20103;-78
2024/01/16 01:46:21;;;;;;;1.00;1.00;;;;;;;-3.27;100.00;96834.09;4995449;28;20072;-79
2024/01/16 01:49:02;;;;;;;0.90;0.90;;;;;;;-3.27;100.00;96825.34;5028992;28;20092;-79
2024/01/16 01:51:37;;;;;;;1.00;1.00;;;;;;;-3.25;100.00;96820.69;4999280;28;20503;-78
2024/01/16 01:54:04;;;;;;;1.00;1.00;;;;;;;-3.21;99.64;96821.09;4995736;28;20068;-79
2024/01/16 01:56:33;;;;;;;1.25;1.17;;;;;;;-3.22;99.80;96835.28;4989737;28;20551;-78
2024/01/16 01:59:01;;;;;;;1.00;1.00;;;;;;;-3.24;99.58;96822.31;5050289;28;20418;-78
2024/01/16 02:01:29;;;;;;;1.00;1.00;;;;;;;-3.29;99.52;96814.22;5033668;28;20131;-78
2024/01/16 02:04:01;;;;;;;1.00;1.00;;;;;;;-3.31;99.43;96819.69;5048515;28;20064;-78
2024/01/16 02:06:45;;;;;;;1.10;1.10;;;;;;;-3.34;99.62;96796.38;5022791;28;20064;-79
2024/01/16 02:09:25;;;;;;;0.93;0.93;;;;;;;-3.34;99.34;96817.47;4994002;28;20050;-78
2024/01/16 02:11:56;;;;;;;0.90;0.90;;;;;;;-3.35;99.56;96799.22;4977871;28;20058;-78
2024/01/16 02:14:30;;;;;;;0.93;0.93;;;;;;;-3.34;99.68;96825.41;4977851;28;20121;-77
2024/01/16 02:17:16;;;;;;;1.00;1.00;;;;;;;-3.34;99.67;96827.19;4939408;29;20051;-78
2024/01/16 02:19:44;;;;;;;1.02;1.02;;;;;;;-3.33;99.79;96820.91;4969540;28;20165;-78
2024/01/16 02:22:16;;;;;;;1.23;1.15;;;;;;;-3.27;99.67;96820.06;4994261;28;20066;-78
2024/01/16 02:24:44;;;;;;;1.00;1.00;;;;;;;-3.27;99.48;96822.72;4994134;28;20057;-78
2024/01/16 02:27:11;;;;;;;1.00;1.00;;;;;;;-3.27;99.54;96827.97;4994136;28;20507;-78
2024/01/16 02:29:44;;;;;;;1.10;1.10;;;;;;;-3.30;99.79;96825.78;4994237;28;20484;-78
2024/01/16 02:32:20;;;;;;;1.23;1.20;;;;;;;-3.28;99.74;96829.03;4992316;28;20046;-78
2024/01/16 02:34:56;;;;;;;1.10;1.10;;;;;;;-3.23;99.42;96828.41;4993798;28;20081;-78
2024/01/16 02:37:29;;;;;;;1.08;1.08;;;;;;;-3.26;99.37;96829.63;4956981;28;20496;-79
2024/01/16 02:39:56;;;;;;;0.80;0.80;;;;;;;-3.27;99.67;96849.09;4973290;28;20054;-79
2024/01/16 02:42:25;;;;;;;1.10;1.10;;;;;;;-3.27;99.59;96836.72;4996669;28;20046;-78
2024/01/16 02:45:09;;;;;;;1.10;1.10;;;;;;;-3.30;99.79;96836.31;4981339;28;20149;-78
2024/01/16 02:47:59;;;;;;;1.00;1.00;;;;;;;-3.29;99.86;96822.13;5000972;28;20056;-78
2024/01/16 02:50:28;;;;;;;1.15;1.15;;;;;;;-3.30;99.92;96812.59;5020527;28;20175;-78
2024/01/16 02:52:55;;;;;;;1.08;1.08;;;;;;;-3.32;100.00;96827.81;5036006;28;20049;-78
2024/01/16 02:55:22;;;;;;;1.25;1.20;;;;;;;-3.31;99.99;96832.09;5035638;28;20525;-78
2024/01/16 02:57:50;;;;;;;1.00;1.00;;;;;;;-3.35;99.92;96825.59;5019530;28;20149;-78
2024/01/16 03:00:32;;;;;;;1.00;1.00;;;;;;;-3.33;100.00;96799.81;5002578;28;20045;-78
2024/01/16 03:03:15;;;;;;;0.93;0.93;;;;;;;-3.35;100.00;96833.50;5008750;28;20050;-78
2024/01/16 03:05:44;;;;;;;1.25;1.23;;;;;;;-3.35;100.00;96841.41;5032191;28;20550;-78
2024/01/16 03:08:40;;;;;;;1.00;1.00;;;;;;;-3.35;100.00;96841.41;5007341;28;20056;-78
2024/01/16 03:11:10;;;;;;;1.10;1.10;;;;;;;-3.36;100.00;96850.38;5011452;28;20588;-78
2024/01/16 03:13:41;;;;;;;0.98;0.98;;;;;;;-3.34;100.00;96853.56;4999640;28;20045;-78
2024/01/16 03:16:52;;;;;;;1.10;1.10;;;;;;;-3.33;100.00;96850.75;4956464;28;20158;-78
2024/01/16 03:19:21;;;;;;;1.00;1.00;;;;;;;-3.36;100.00;96845.09;4998890;28;20499;-78
2024/01/16 03:22:05;;;;;;;1.00;1.00;;;;;;;-3.36;100.00;96829.25;4997739;28;20053;-79
2024/01/16 03:25:02;;;;;;;1.20;1.15;;;;;;;-3.35;100.00;96846.69;4996725;28;20050;-79
2024/01/16 03:27:53;;;;;;;1.10;1.10;;;;;;;-3.36;100.00;96845.09;4968315;28;20132;-77
2024/01/16 03:30:35;;;;;;;1.10;1.10;;;;;;;-3.37;100.00;96848.72;4965483;28;20528;-78
2024/01/16 03:33:03;;;;;;;1.10;1.10;;;;;;;-3.34;100.00;96848.31;5011708;28;20060;-78
2024/01/16 03:35:30;;;;;;;1.15;1.15;;;;;;;-3.35;100.00;96844.06;5011755;28;20084;-79
2024/01/16 03:37:57;;;;;;;1.00;1.00;;;;;;;-3.38;100.00;96841.84;5012025;28;20490;-77
2024/01/16 03:40:27;;;;;;;1.15;1.13;;;;;;;-3.42;100.00;96848.53;5040337;28;20504;-78
2024/01/16 03:42:54;;;;;;;0.80;0.80;;;;;;;-3.43;100.00;96844.28;5038407;28;20052;-79
2024/01/16 03:45:21;;;;;;;1.10;1.10;;;;;;;-3.42;100.00;96856.44;5055072;28;20055;-78
2024/01/16 03:47:50;;;;;;;0.95;0.95;;;;;;;-3.43;100.00;96831.09;5071548;28;20579;-81
2024/01/16 03:50:17;;;;;;;1.38;1.27;;;;;;;-3.46;100.00;96839.44;5054747;28;20052;-78
2024/01/16 03:52:44;;;;;;;0.93;0.93;;;;;;;-3.48;100.00;96842.28;5071590;28;20051;-80
2024/01/16 03:55:12;;;;;;;1.00;1.00;;;;;;;-3.49;100.00;96830.13;5091255;28;20060;-79
2024/01/16 03:57:39;;;;;;;1.00;1.00;;;;;;;-3.53;100.00;96839.47;5057578;28;20052;-80
2024/01/16 04:00:11;;;;;;;0.90;0.90;;;;;;;-3.51;100.00;96838.22;5058070;28;20044;-78
2024/01/16 04:02:38;;;;;;;1.00;1.00;;;;;;;-3.51;100.00;96846.13;5091292;28;20048;-77
2024/01/16 04:05:06;;;;;;;1.27;1.17;;;;;;;-3.49;99.55;96836.19;5091478;28;20090;-80
2024/01/16 04:07:34;;;;;;;1.13;1.13;;;;;;;-3.53;99.43;96821.81;5090857;28;20071;-79
2024/01/16 04:10:05;;;;;;;1.00;1.00;;;;;;;-3.55;99.30;96839.66;5025321;28;20532;-80
2024/01/16 04:12:32;;;;;;;1.00;1.00;;;;;;;-3.57;99.32;96827.69;5051130;28;20089;-79
2024/01/16 04:15:00;;;;;;;0.90;0.90;;;;;;;-3.67;99.33;96812.34;5034228;28;20053;-79
2024/01/16 04:17:30;;;;;;;1.00;1.00;;;;;;;-3.68;99.84;96834.44;5017808;28;20520;-80
2024/01/16 04:20:17;;;;;;;0.93;0.93;;;;;;;-3.66;99.72;96840.31;4991146;28;20567;-79
2024/01/16 04:22:48;;;;;;;0.98;0.98;;;;;;;-3.60;99.22;96838.66;4933550;29;20055;-79
2024/01/16 04:25:19;;;;;;;0.88;0.88;;;;;;;-3.64;99.21;96833.00;4920245;29;20231;-79
2024/01/16 04:28:01;;;;;;;1.25;1.20;;;;;;;-3.66;99.16;96850.84;4937240;28;20564;-79
2024/01/16 04:30:47;;;;;;;1.10;1.10;;;;;;;-3.69;99.28;96846.00;4900215;28;20049;-79
2024/01/16 04:33:17;;;;;;;1.00;1.00;;;;;;;-3.65;99.16;96849.81;4933279;29;20080;-79
2024/01/16 04:36:12;;;;;;;1.08;1.08;;;;;;;-3.63;99.28;96853.06;4850602;29;20056;-79
2024/01/16 04:38:39;;;;;;;1.23;1.20;;;;;;;-3.66;99.25;96850.03;4874213;29;20049;-79
2024/01/16 04:41:08;;;;;;;0.93;0.93;;;;;;;-3.71;99.29;96848.81;4876451;29;20455;-77
2024/01/16 04:43:35;;;;;;;1.08;1.08;;;;;;;-3.70;99.51;96857.53;4898181;29;20048;-78
2024/01/16 04:46:02;;;;;;;1.00;1.00;;;;;;;-3.69;99.33;96853.91;4914097;29;20056;-82
2024/01/16 04:48:30;;;;;;;0.90;0.90;;;;;;;-3.74;99.40;96865.06;4913377;29;20052;-79
2024/01/16 04:50:57;;;;;;;0.90;0.90;;;;;;;-3.72;99.30;96851.69;4913007;29;20047;-81
2024/01/16 04:53:25;;;;;;;1.10;1.10;;;;;;;-3.74;99.13;96875.59;4926256;29;20170;-78
2024/01/16 04:55:52;;;;;;;1.00;1.00;;;;;;;-3.73;99.24;96864.03;4951300;29;20055;-79
2024/01/16 04:58:27;;;;;;;1.00;1.00;;;;;;;-3.75;99.15;96852.06;4927838;29;20082;-79
2024/01/16 05:00:56;;;;;;;1.00;1.00;;;;;;;-3.78;99.27;96869.13;4936744;29;20416;-79
2024/01/16 05:03:29;;;;;;;1.20;1.20;;;;;;;-3.73;99.20;96861.41;4951958;28;20052;-79
2024/01/16 05:06:13;;;;;;;1.00;1.00;;;;;;;-3.73;99.19;96863.22;4982857;28;20053;-78
2024/01/16 05:08:41;;;;;;;0.88;0.88;;;;;;;-3.74;99.27;96861.63;5046909;28;20425;-78
2024/01/16 05:11:09;;;;;;;1.05;1.05;;;;;;;-3.71;98.73;96866.47;5057672;28;20049;-79
2024/01/16 05:13:36;;;;;;;1.30;1.20;;;;;;;-3.70;98.60;96870.72;5062233;28;20048;-79
2024/01/16 05:16:18;;;;;;;0.80;0.80;;;;;;;-3.69;98.34;96867.09;5087571;28;20146;-79
2024/01/16 05:18:50;;;;;;;1.30;1.20;;;;;;;-3.75;97.84;96858.19;5052015;28;20056;-80
2024/01/16 05:21:17;;;;;;;1.10;1.10;;;;;;;-3.79;98.10;96870.16;5067706;28;20126;-79
2024/01/16 05:23:50;;;;;;;0.90;0.90;;;;;;;-3.77;98.09;96862.84;5036742;28;20533;-78
2024/01/16 05:26:39;;;;;;;0.90;0.90;;;;;;;-3.78;97.93;96852.50;5044598;28;20063;-79
2024/01/16 05:29:09;;;;;;;1.10;1.10;;;;;;;-3.81;97.75;96863.47;5030915;28;20048;-79
2024/01/16 05:31:41;;;;;;;1.00;1.00;;;;;;;-3.86;97.79;96845.63;5060090;28;20058;-79
2024/01/16 05:34:16;;;;;;;0.90;0.90;;;;;;;-3.86;97.93;96858.78;5047110;28;20079;-78
2024/01/16 05:36:54;;;;;;;;;;;;;;;-3.87;98.00;96859.81;5040776;28;20071;-78
2024/01/16 05:40:04;;;;;;;0.70;0.70;;;;;;;-3.93;97.96;96866.69;5068519;28;20308;-79
2024/01/16 05:42:34;;;;;;;1.00;1.00;;;;;;;-3.90;98.09;96865.47;5025372;28;20044;-78
2024/01/16 05:45:30;;;;;;;0.90;0.90;;;;;;;-3.86;98.32;96848.25;4927220;28;20047;-78
2024/01/16 05:48:01;;;;;;;0.77;0.77;;;;;;;-3.84;98.30;96832.25;4859964;29;20594;-78
2024/01/16 05:50:44;;;;;;;1.10;1.10;;;;;;;-3.83;97.95;96844.41;4849790;29;20082;-78
2024/01/16 05:53:27;;;;;;;0.95;0.95;;;;;;;-3.84;97.70;96840.16;4882130;29;20185;-78
2024/01/16 05:56:01;;;;;;;1.00;1.00;;;;;;;-3.88;97.54;96839.75;4853441;29;20053;-77
2024/01/16 05:58:49;;;;;;;1.10;1.10;;;;;;;-3.90;97.94;96854.13;4863048;29;20053;-78
2024/01/16 06:01:29;;;;;;;1.10;1.10;;;;;;;-3.93;97.82;96844.81;4864460;29;20475;-78
2024/01/16 06:03:57;;;;;;;1.40;1.30;;;;;;;-3.87;97.95;96854.56;4871052;29;20064;-78
2024/01/16 06:06:26;;;;;;;1.10;1.10;;;;;;;-3.87;97.70;96867.72;4867774;29;20061;-76
2024/01/16 06:11:54;;;;;;;1.15;1.15;;;;;;;-3.89;97.55;96890.84;4851540;29;20057;-79
2024/01/16 06:14:37;;;;;;;0.88;0.88;;;;;;;-3.82;98.05;96894.28;4892353;29;20478;-78
2024/01/16 06:17:42;;;;;;;1.10;1.10;;;;;;;-3.81;97.84;96893.25;4890620;29;20577;-79
2024/01/16 06:20:17;;;;;;;1.10;1.10;;;;;;;-3.84;97.64;96871.78;4952026;28;20065;-79
2024/01/16 06:23:47;;;;;;;1.00;1.00;;;;;;;-3.93;98.20;96853.53;4975963;28;20596;-79
2024/01/16 06:26:27;;;;;;;0.90;0.90;;;;;;;-4.02;98.76;96852.13;4912664;29;20058;-79
2024/01/16 06:29:06;;;;;;;0.90;0.90;;;;;;;-3.99;99.36;96866.72;4878947;29;20572;-80
2024/01/16 06:31:57;;;;;;;0.93;0.93;;;;;;;-4.03;100.00;96879.47;4898685;29;20139;-79
2024/01/16 06:34:24;;;;;;;1.00;1.00;;;;;;;-4.06;100.00;96879.91;4878574;29;20077;-79
2024/01/16 06:37:00;;;;;;;0.98;0.98;;;;;;;-4.06;100.00;96884.34;4863092;29;20065;-78
2024/01/16 06:39:30;;;;;;;0.98;0.98;;;;;;;-4.04;100.00;96874.44;4874447;29;20048;-79
2024/01/16 06:41:58;;;;;;;0.93;0.93;;;;;;;-4.04;100.00;96875.25;4887963;29;20565;-78
2024/01/16 06:45:15;;;;;;;0.90;0.90;;;;;;;-3.97;100.00;96888.41;4890035;29;20083;-80
2024/01/16 06:48:03;;;;;;;0.90;0.90;;;;;;;-3.97;100.00;96893.69;4905532;28;20050;-79
2024/01/16 06:50:43;;;;;;;1.10;1.10;;;;;;;-3.98;100.00;96879.69;4917223;28;20043;-78
2024/01/16 06:53:30;;;;;;;1.00;1.00;;;;;;;-4.01;100.00;96885.38;4954727;28;20046;-78
2024/01/16 06:56:11;;;;;;;1.10;1.10;;;;;;;-4.05;100.00;96871.00;4933162;28;20061;-79
2024/01/16 06:58:43;;;;;;;1.10;1.10;;;;;;;-4.02;100.00;96881.13;5023399;28;20079;-79
2024/01/16 07:01:11;;;;;;;1.00;1.00;;;;;;;-4.03;100.00;96889.22;5041595;28;20048;-79
2024/01/16 07:03:38;;;;;;;0.90;0.90;;;;;;;-4.00;100.00;96889.63;5064933;28;20123;-78
2024/01/16 07:06:05;;;;;;;0.80;0.80;;;;;;;-4.01;100.00;96888.00;5042934;28;20041;-80
2024/01/16 07:08:36;;;;;;;1.08;1.08;;;;;;;-3.96;100.00;96897.94;5029102;28;20041;-79
2024/01/16 07:11:08;;;;;;;1.38;1.27;;;;;;;-3.95;100.00;96889.00;5040906;28;20091;-79
2024/01/16 07:14:00;;;;;;;0.90;0.90;;;;;;;-3.96;99.83;96897.94;5027229;28;20541;-80
2024/01/16 07:16:30;;;;;;;0.98;0.98;;;;;;;-3.94;99.61;96891.44;5080230;28;20512;-79
2024/01/16 07:18:58;;;;;;;1.10;1.10;;;;;;;-3.97;99.45;96899.75;5071029;28;20115;-78
2024/01/16 07:21:25;;;;;;;1.00;1.00;;;;;;;-4.03;99.34;96881.31;5076464;28;20152;-78
2024/01/16 07:23:58;;;;;;;1.23;1.20;;;;;;;-3.96;99.22;96888.19;5054212;28;20493;-80
2024/01/16 07:26:58;;;;;;;0.90;0.90;;;;;;;-3.93;98.93;96902.78;5010481;28;20162;-79
2024/01/16 07:29:34;;;;;;;0.90;0.90;;;;;;;-3.91;98.38;96895.50;5006855;28;20056;-80
2024/01/16 07:32:01;;;;;;;1.10;1.10;;;;;;;-3.90;98.32;96896.31;5050551;28;20048;-81
2024/01/16 07:34:29;;;;;;;1.08;1.08;;;;;;;-3.88;97.77;96896.91;5001265;28;20077;-79
2024/01/16 07:36:56;;;;;;;1.27;1.20;;;;;;;-3.89;97.71;96893.47;5031375;28;20244;-79
2024/01/16 07:39:24;;;;;;;1.00;1.00;;;;;;;-3.90;97.30;96885.75;5033662;28;20067;-79
2024/01/16 07:42:00;;;;;;;1.38;1.27;;;;;;;-3.86;96.81;96892.25;4998172;28;20054;-78
2024/01/16 07:44:29;;;;;;;1.08;1.08;;;;;;;-3.79;96.55;96901.78;5000218;28;20055;-79
2024/01/16 07:47:09;;;;;;;1.15;1.15;;;;;;;-3.77;96.04;96881.28;4952592;28;20518;-79
2024/01/16 07:49:45;;;;;;;1.05;1.05;;;;;;;-3.74;95.77;96883.53;4979128;28;20171;-79
2024/01/16 07:55:10;;;;;;;;;;;;;;;-3.64;94.42;96871.75;4996899;28;20053;-78
2024/01/16 07:57:44;;;;;;;0.98;0.98;;;;;;;-3.61;93.63;96872.13;5027076;28;20393;-80
2024/01/16 08:00:45;;;;;;;1.17;1.17;;;;;;;-3.57;93.22;96890.97;5061874;28;20051;-79
2024/01/16 08:03:18;;;;;;;1.10;1.10;;;;;;;-3.61;92.50;96872.13;5032447;28;20142;-79
2024/01/16 08:05:59;;;;;;;1.13;1.13;;;;;;;-3.65;92.25;96870.91;5015379;28;20087;-78
2024/01/16 08:08:40;;;;;;;1.23;1.20;;;;;;;-3.58;92.50;96871.72;5059134;28;20147;-78
2024/01/16 08:11:07;;;;;;;1.10;1.10;;;;;;;-3.57;92.27;96860.16;5058957;28;20132;-78
2024/01/16 08:13:36;;;;;;;1.10;1.10;;;;;;;-3.56;92.10;96863.59;4999502;28;20419;-79
2024/01/16 08:16:40;;;;;;;1.30;1.20;;;;;;;-3.50;91.64;96850.38;4943571;28;20594;-78
2024/01/16 08:19:19;;;;;;;1.13;1.13;;;;;;;-3.49;91.52;96844.13;4920843;29;20413;-78
2024/01/16 08:21:57;;;;;;;1.00;1.00;;;;;;;-3.46;90.72;96844.72;4963933;28;20105;-77
2024/01/16 08:24:44;;;;;;;1.00;1.00;;;;;;;-3.46;90.57;96865.81;4932450;28;20491;-78
2024/01/16 08:27:13;;;;;;;0.93;0.93;;;;;;;-3.44;90.23;96858.47;4993245;28;20050;-78
2024/01/16 08:29:41;;;;;;;1.00;1.00;;;;;;;-3.40;90.10;96862.34;4984338;28;20210;-79
2024/01/16 08:32:21;;;;;;;1.17;1.17;;;;;;;-3.29;89.96;96853.78;4989924;28;20052;-79
2024/01/16 08:34:51;;;;;;;0.80;0.80;;;;;;;-3.23;89.67;96854.78;4996833;28;20525;-79
2024/01/16 08:37:18;;;;;;;1.10;1.10;;;;;;;-3.32;89.47;96848.91;4992447;28;20517;-78
2024/01/16 08:39:50;;;;;;;1.10;1.10;;;;;;;-3.41;89.38;96842.25;4987206;28;20054;-78
2024/01/16 08:42:19;;;;;;;0.80;0.80;;;;;;;-3.50;89.26;96845.13;4956930;28;20136;-79
2024/01/16 08:44:50;;;;;;;1.02;1.02;;;;;;;-3.58;89.13;96837.44;4962827;28;20122;-78
2024/01/16 08:47:23;;;;;;;1.30;1.23;;;;;;;-3.47;89.50;96841.25;5023592;28;20580;-78
2024/01/16 08:49:59;;;;;;;1.30;1.20;;;;;;;-3.32;89.00;96838.34;5046488;28;20386;-79
2024/01/16 08:52:35;;;;;;;1.30;1.20;;;;;;;-3.23;88.66;96831.03;4996074;28;20049;-77
2024/01/16 08:55:19;;;;;;;1.35;1.25;;;;;;;-3.23;88.27;96829.19;4934747;28;20051;-78
2024/01/16 08:58:11;;;;;;;1.30;1.20;;;;;;;-3.13;88.27;96837.47;4939651;28;20055;-76
2024/01/16 09:00:39;;;;;;;1.42;1.33;;;;;;;-3.06;88.29;96819.78;4948075;29;20090;-78
2024/01/16 09:03:08;;;;;;;1.05;1.05;;;;;;;-3.11;87.65;96822.25;4918435;29;20143;-78
2024/01/16 09:05:38;;;;;;;1.00;1.00;;;;;;;-3.08;87.64;96824.44;4918543;29;20063;-77
2024/01/16 09:08:09;;;;;;;1.35;1.25;;;;;;;-3.06;87.72;96814.50;4931033;28;20535;-78
2024/01/16 09:10:42;;;;;;;1.23;1.20;;;;;;;-2.97;87.64;96814.25;4886782;29;20053;-79
2024/01/16 09:13:16;;;;;;;1.30;1.20;;;;;;;-2.99;87.22;96818.91;4889223;29;20531;-78
2024/01/16 09:16:16;;;;;;;1.20;1.20;;;;;;;-2.95;87.09;96817.50;4873128;29;20052;-78
2024/01/16 09:18:52;;;;;;;1.30;1.20;;;;;;;-2.96;86.48;96815.84;4892707;29;20506;-77
2024/01/16 09:21:37;;;;;;;1.30;1.20;;;;;;;-2.93;86.38;96807.53;4899588;29;20051;-77
2024/01/16 09:24:27;;;;;;;1.10;1.10;;;;;;;-2.94;86.45;96816.47;4933135;29;20072;-78
2024/01/16 09:26:58;;;;;;;1.10;1.10;;;;;;;-2.96;86.23;96818.50;4939673;28;20062;-77
2024/01/16 09:29:30;;;;;;;1.40;1.30;;;;;;;-2.93;86.28;96810.19;4941305;28;20060;-78
2024/01/16 09:31:57;;;;;;;1.00;1.00;;;;;;;-2.88;86.63;96820.91;4969712;28;20176;-78
2024/01/16 09:34:25;;;;;;;1.02;1.02;;;;;;;-2.80;86.40;96818.00;4977600;28;20054;-78
2024/01/16 09:37:28;;;;;;;1.30;1.20;;;;;;;-2.86;85.67;96814.38;4970166;28;20064;-77
2024/01/16 09:40:06;;;;;;;1.10;1.10;;;;;;;-2.86;86.04;96800.34;4889536;29;20068;-77
2024/01/16 09:42:38;;;;;;;1.17;1.17;;;;;;;-2.79;85.83;96808.25;4933085;29;20040;-77
2024/01/16 09:45:10;;;;;;;1.10;1.10;;;;;;;-2.80;85.57;96807.44;4925073;29;20055;-77
2024/01/16 09:47:55;;;;;;;1.02;1.02;;;;;;;-2.84;85.46;96804.44;4937922;28;20043;-78
2024/01/16 09:50:23;;;;;;;0.90;0.90;;;;;;;-2.74;85.62;96800.50;4955807;28;20228;-77
2024/01/16 09:52:50;;;;;;;1.05;1.05;;;;;;;-2.69;85.14;96779.53;4958936;28;20607;-78
2024/01/16 09:55:18;;;;;;;1.25;1.20;;;;;;;-2.71;85.07;96798.25;4960780;28;20071;-78
2024/01/16 09:57:51;;;;;;;1.13;1.13;;;;;;;-2.67;84.94;96796.78;4949078;28;20048;-78
2024/01/16 10:00:20;;;;;;;1.20;1.20;;;;;;;-2.57;84.59;96792.88;4969000;28;20531;-78
2024/01/16 10:02:49;;;;;;;1.30;1.20;;;;;;;-2.40;84.59;96801.88;4968876;28;20073;-78
2024/01/16 10:05:24;;;;;;;1.40;1.30;;;;;;;-2.41;83.91;96801.03;5034317;28;20052;-78
2024/01/16 10:08:08;;;;;;;1.23;1.17;;;;;;;-2.52;83.99;96782.47;4975990;28;20057;-78
2024/01/16 10:10:41;;;;;;;0.95;0.95;;;;;;;-2.51;84.04;96790.16;5000932;28;20060;-78
2024/01/16 10:13:17;;;;;;;1.35;1.25;;;;;;;-2.67;84.06;96774.84;4986154;28;20054;-76
2024/01/16 10:15:52;;;;;;;1.30;1.20;;;;;;;-2.75;84.28;96775.94;4954660;28;20435;-78
2024/01/16 10:18:26;;;;;;;1.10;1.10;;;;;;;-2.79;84.49;96781.84;4985952;28;20054;-79
2024/01/16 10:20:54;;;;;;;1.27;1.20;;;;;;;-2.77;85.18;96779.81;4976892;28;20131;-78
2024/01/16 10:23:30;;;;;;;1.10;1.10;;;;;;;-2.86;85.06;96781.88;4993896;28;20425;-80
2024/01/16 10:26:36;;;;;;;1.10;1.10;;;;;;;-2.90;85.22;96781.50;5035745;28;20052;-79
2024/01/16 10:29:13;;;;;;;1.10;1.10;;;;;;;-2.85;85.43;96779.03;5015705;28;20053;-78
2024/01/16 10:32:42;;;;;;;1.10;1.10;;;;;;;-2.75;85.39;96777.78;5021836;28;20593;-79
2024/01/16 10:35:41;;;;;;;1.00;1.00;;;;;;;-2.73;85.54;96773.88;4978589;28;20052;-77
2024/01/16 10:38:43;;;;;;;1.25;1.20;;;;;;;-2.81;85.07;96768.88;5009517;28;20055;-78
2024/01/16 10:41:37;;;;;;;1.05;1.05;;;;;;;-2.91;85.54;96768.50;5030438;28;20174;-78
2024/01/16 10:44:07;;;;;;;1.33;1.23;;;;;;;-2.92;85.51;96762.44;5058418;28;20140;-79
2024/01/16 10:46:35;;;;;;;1.13;1.13;;;;;;;-2.94;86.00;96758.38;5061073;28;20253;-79
2024/01/16 10:49:04;;;;;;;1.13;1.13;;;;;;;-2.94;86.09;96758.38;5026707;28;20136;-78
2024/01/16 10:51:32;;;;;;;1.10;1.10;;;;;;;-2.92;85.90;96761.63;5061157;28;20044;-78
2024/01/16 10:54:08;;;;;;;1.00;1.00;;;;;;;-2.98;86.01;96754.56;5047376;28;20136;-77
2024/01/16 10:56:59;;;;;;;1.30;1.20;;;;;;;-2.98;86.20;96751.94;4993635;28;20052;-78
2024/01/16 10:59:46;;;;;;;1.08;1.08;;;;;;;-2.99;86.37;96756.38;5038441;28;20410;-79
2024/01/16 11:02:22;;;;;;;1.10;1.10;;;;;;;-2.98;86.26;96752.75;5029865;28;20058;-79
2024/01/16 11:05:12;;;;;;;1.30;1.20;;;;;;;-2.93;86.41;96747.63;4964712;28;20571;-78
2024/01/16 11:07:58;;;;;;;1.17;1.17;;;;;;;-2.91;86.15;96739.47;5008559;28;20055;-79
2024/01/16 11:10:27;;;;;;;0.93;0.93;;;;;;;-2.88;86.27;96731.16;4985764;28;20050;-78
2024/01/16 11:12:55;;;;;;;1.35;1.25;;;;;;;-2.87;85.77;96743.31;4997423;28;20052;-78
2024/01/16 11:15:25;;;;;;;1.00;1.00;;;;;;;-2.85;86.17;96736.00;5014961;28;20127;-78
2024/01/16 11:18:00;;;;;;;1.00;1.00;;;;;;;-2.84;86.07;96734.97;4982017;28;20561;-78
2024/01/16 11:20:52;;;;;;;1.10;1.10;;;;;;;-2.87;85.93;96732.75;4958651;28;20065;-79
2024/01/16 11:23:48;;;;;;;;;;;;;;;-2.87;86.16;96736.19;4873890;29;20061;-76
2024/01/16 11:27:02;;;;;;;0.90;0.90;;;;;;;-2.85;86.49;96733.34;4822458;29;19928;-78
2024/01/16 11:29:57;;;;;;;0.98;0.98;;;;;;;-2.99;86.05;96724.72;4847486;29;20052;-79
2024/01/16 11:32:40;;;;;;;1.17;1.17;;;;;;;-2.95;86.62;96727.75;4846127;29;20094;-79
2024/01/16 11:35:11;;;;;;;1.10;1.10;;;;;;;-3.00;86.03;96723.09;4864784;29;20125;-80
2024/01/16 11:37:45;;;;;;;1.00;1.00;;;;;;;-3.15;86.39;96718.13;4871925;29;20526;-78
2024/01/16 11:40:24;;;;;;;1.13;1.13;;;;;;;-3.13;86.69;96723.22;4865062;29;20481;-78
2024/01/16 11:42:56;;;;;;;1.10;1.10;;;;;;;-3.20;86.92;96723.25;4935192;28;20065;-78
2024/01/16 11:45:30;;;;;;;1.13;1.13;;;;;;;-3.21;86.76;96721.63;4944332;28;20133;-78
2024/01/16 11:48:31;;;;;;;0.93;0.93;;;;;;;-3.23;86.95;96723.66;4925494;28;20106;-77
2024/01/16 11:51:42;;;;;;;0.90;0.90;;;;;;;-3.30;87.31;96712.34;4959486;28;20057;-77
2024/01/16 11:54:19;;;;;;;1.10;1.10;;;;;;;-3.33;87.24;96718.06;4972838;28;20050;-79
2024/01/16 11:57:12;;;;;;;1.10;1.10;;;;;;;-3.33;87.29;96712.78;4931872;29;20146;-78
2024/01/16 12:00:33;;;;;;;1.10;1.10;;;;;;;-3.36;87.31;96716.66;4921425;29;20060;-79
2024/01/16 12:03:11;;;;;;;0.88;0.88;;;;;;;-3.40;87.23;96712.81;4887525;29;20059;-79
2024/01/16 12:05:48;;;;;;;1.10;1.10;;;;;;;-3.46;87.31;96708.38;4922727;29;20147;-80
2024/01/16 12:08:39;;;;;;;1.00;1.00;;;;;;;-3.49;88.02;96708.81;4898743;29;20085;-78
2024/01/16 12:11:31;;;;;;;1.10;1.10;;;;;;;-3.45;88.50;96704.72;4887058;29;20063;-79
2024/01/16 12:14:23;;;;;;;;;;;;;;;-3.42;88.44;96698.22;4895771;28;20050;-79
2024/01/16 12:17:10;;;;;;;1.00;1.00;;;;;;;-3.50;88.42;96697.44;4989681;28;20338;-79
2024/01/16 12:19:43;;;;;;;1.00;1.00;;;;;;;-3.49;88.66;96695.63;5006789;28;20419;-79
2024/01/16 12:22:18;;;;;;;1.02;1.02;;;;;;;-3.59;88.66;96693.44;4949817;28;20061;-79
2024/01/16 12:25:04;;;;;;;1.20;1.20;;;;;;;-3.62;88.70;96698.31;4949936;28;20153;-78